createdAt,value
2018-03-25T00:01:25.649Z,96543.36
2018-03-25T00:03:55.166Z,96538.06
2018-03-25T00:06:23.454Z,96535.95
2018-03-25T00:08:51.716Z,96542.09
2018-03-25T00:11:19.976Z,96541.14
2018-03-25T00:13:48.244Z,96544.94
2018-03-25T00:16:16.582Z,96546.19
2018-03-25T00:18:45.029Z,96539.23
2018-03-25T00:21:13.511Z,96552.42
2018-03-25T00:23:42.544Z,96540.59
2018-03-25T00:26:10.851Z,96551.25
2018-03-25T00:28:39.132Z,96542.69
2018-03-25T00:31:07.397Z,96556.55
2018-03-25T00:33:36.821Z,96554.52
2018-03-25T00:36:05.828Z,96545.64
2018-03-25T00:38:34.877Z,96552.49
2018-03-25T00:41:03.892Z,96544.44
2018-03-25T00:43:32.255Z,96547.23
2018-03-25T00:46:00.571Z,96553.14
2018-03-25T00:48:28.864Z,96543.10
2018-03-25T00:50:57.406Z,96545.92
2018-03-25T00:53:26.517Z,96547.37
2018-03-25T00:55:54.956Z,96555.26
2018-03-25T00:58:23.228Z,96548.20
2018-03-25T01:00:51.810Z,96556.41
2018-03-25T01:03:20.105Z,96555.70
2018-03-25T01:05:48.398Z,96556.57
2018-03-25T01:08:17.500Z,96560.56
2018-03-25T01:10:45.831Z,96557.61
2018-03-25T01:13:14.226Z,96559.72
2018-03-25T01:16:00.338Z,96561.70
2018-03-25T01:18:28.736Z,96553.98
2018-03-25T01:20:57.149Z,96560.30
2018-03-25T01:23:26.252Z,96553.30
2018-03-25T01:25:55.403Z,96556.50
2018-03-25T01:28:23.822Z,96569.50
2018-03-25T01:30:52.172Z,96562.81
2018-03-25T01:33:20.441Z,96566.67
2018-03-25T01:35:49.461Z,96563.28
2018-03-25T01:38:18.585Z,96566.03
2018-03-25T01:40:46.897Z,96562.91
2018-03-25T01:43:15.208Z,96566.73
2018-03-25T01:45:43.507Z,96569.07
2018-03-25T01:48:11.841Z,96567.93
2018-03-25T01:50:40.110Z,96566.32
2018-03-25T01:53:09.132Z,96566.38
2018-03-25T01:55:38.161Z,96559.87
2018-03-25T01:58:06.437Z,96568.32
2018-03-25T02:00:34.757Z,96562.08
2018-03-25T02:03:03.016Z,96554.70
2018-03-25T02:05:32.131Z,96553.82
2018-03-25T02:08:00.430Z,96561.98
2018-03-25T02:10:28.788Z,96559.20
2018-03-25T02:12:57.179Z,96550.92
2018-03-25T02:15:26.846Z,96557.75
2018-03-25T02:17:55.153Z,96557.77
2018-03-25T02:20:23.496Z,96546.27
2018-03-25T02:22:51.766Z,96553.90
2018-03-25T02:25:20.817Z,96560.41
2018-03-25T02:27:49.103Z,96554.20
2018-03-25T02:30:17.529Z,96552.38
2018-03-25T02:32:45.784Z,96545.22
2018-03-25T02:35:14.229Z,96548.81
2018-03-25T02:37:42.479Z,96546.86
2018-03-25T02:40:10.756Z,96552.89
2018-03-25T02:42:39.026Z,96551.32
2018-03-25T02:45:07.312Z,96559.58
2018-03-25T02:47:35.570Z,96557.08
2018-03-25T02:50:03.852Z,96566.92
2018-03-25T02:52:32.114Z,96559.58
2018-03-25T02:55:00.436Z,96562.27
2018-03-25T02:57:29.556Z,96561.86
2018-03-25T02:59:58.101Z,96565.50
2018-03-25T03:02:26.628Z,96563.80
2018-03-25T03:04:55.010Z,96561.02
2018-03-25T03:07:23.364Z,96565.18
2018-03-25T03:09:51.641Z,96569.61
2018-03-25T03:12:20.678Z,96572.77
2018-03-25T03:14:48.932Z,96580.39
2018-03-25T03:17:17.226Z,96567.67
2018-03-25T03:19:45.489Z,96569.89
2018-03-25T03:22:15.816Z,96566.47
2018-03-25T03:24:44.857Z,96570.01
2018-03-25T03:27:14.312Z,96561.67
2018-03-25T03:29:43.399Z,96567.31
2018-03-25T03:32:11.776Z,96566.60
2018-03-25T03:34:40.035Z,96571.09
2018-03-25T03:37:09.177Z,96572.30
2018-03-25T03:39:37.472Z,96572.88
2018-03-25T03:42:05.850Z,96576.33
2018-03-25T03:44:34.143Z,96577.82
2018-03-25T03:47:03.262Z,96580.00
2018-03-25T03:49:31.544Z,96579.78
2018-03-25T03:52:00.137Z,96582.39
2018-03-25T03:54:28.531Z,96567.62
2018-03-25T03:56:58.363Z,96574.38
2018-03-25T03:59:28.542Z,96568.88
2018-03-25T04:01:56.969Z,96563.91
2018-03-25T04:04:25.510Z,96572.45
2018-03-25T04:06:53.811Z,96575.66
2018-03-25T04:09:22.160Z,96574.27
2018-03-25T04:11:51.619Z,96585.34
2018-03-25T04:14:19.892Z,96594.07
2018-03-25T04:16:48.465Z,96591.27
2018-03-25T04:19:16.764Z,96596.10
2018-03-25T04:21:45.045Z,96592.79
2018-03-25T04:24:13.436Z,96594.10
2018-03-25T04:26:41.909Z,96600.73
2018-03-25T04:29:10.962Z,96595.81
2018-03-25T04:31:39.228Z,96597.82
2018-03-25T04:34:07.504Z,96603.91
2018-03-25T04:36:36.539Z,96609.13
2018-03-25T04:39:06.800Z,96603.80
2018-03-25T04:41:35.062Z,96607.49
2018-03-25T04:44:03.348Z,96616.54
2018-03-25T04:46:31.627Z,96614.85
2018-03-25T04:49:00.108Z,96615.25
2018-03-25T04:51:28.463Z,96618.86
2018-03-25T04:53:57.788Z,96620.76
2018-03-25T04:56:26.167Z,96623.55
2018-03-25T04:58:54.506Z,96622.78
2018-03-25T05:01:22.764Z,96619.13
2018-03-25T05:03:52.414Z,96617.73
2018-03-25T05:06:20.688Z,96622.47
2018-03-25T05:08:49.734Z,96614.94
2018-03-25T05:11:18.024Z,96622.98
2018-03-25T05:13:46.395Z,96620.36
2018-03-25T05:16:14.986Z,96618.71
2018-03-25T05:18:43.284Z,96622.72
2018-03-25T05:21:11.574Z,96620.51
2018-03-25T05:23:39.877Z,96620.33
2018-03-25T05:26:08.252Z,96624.22
2018-03-25T05:28:36.546Z,96632.63
2018-03-25T05:31:04.829Z,96627.84
2018-03-25T05:33:33.109Z,96622.41
2018-03-25T05:36:02.168Z,96628.38
2018-03-25T05:38:30.548Z,96626.31
2018-03-25T05:40:58.897Z,96627.21
2018-03-25T05:43:27.230Z,96631.29
2018-03-25T05:45:55.528Z,96635.06
2018-03-25T05:48:23.945Z,96635.34
2018-03-25T05:50:52.200Z,96633.14
2018-03-25T05:53:20.459Z,96642.75
2018-03-25T05:55:48.753Z,96643.56
2018-03-25T05:58:17.045Z,96646.02
2018-03-25T06:00:45.431Z,96668.47
2018-03-25T06:03:13.933Z,96653.46
2018-03-25T06:05:42.409Z,96656.20
2018-03-25T06:08:10.819Z,96659.84
2018-03-25T06:10:39.113Z,96667.89
2018-03-25T06:13:07.459Z,96670.39
2018-03-25T06:15:36.512Z,96670.97
2018-03-25T06:18:04.776Z,96671.54
2018-03-25T06:20:34.411Z,96681.09
2018-03-25T06:23:02.710Z,96680.67
2018-03-25T06:25:30.981Z,96685.41
2018-03-25T06:27:59.306Z,96687.89
2018-03-25T06:30:27.891Z,96685.20
2018-03-25T06:32:56.194Z,96695.34
2018-03-25T06:35:25.378Z,96688.41
2018-03-25T06:37:53.683Z,96693.92
2018-03-25T06:40:22.044Z,96704.01
2018-03-25T06:42:50.302Z,96701.09
2018-03-25T06:45:18.572Z,96706.09
2018-03-25T06:47:46.851Z,96698.68
2018-03-25T06:50:15.137Z,96709.03
2018-03-25T06:52:43.408Z,96718.81
2018-03-25T06:55:11.685Z,96722.70
2018-03-25T06:57:39.958Z,96716.35
2018-03-25T07:00:09.014Z,96721.13
2018-03-25T07:02:37.268Z,96721.20
2018-03-25T07:05:05.572Z,96724.19
2018-03-25T07:07:33.842Z,96724.84
2018-03-25T07:10:03.477Z,96728.00
2018-03-25T07:12:31.769Z,96739.93
2018-03-25T07:15:00.214Z,96741.48
2018-03-25T07:17:28.523Z,96739.72
2018-03-25T07:19:56.869Z,96743.37
2018-03-25T07:22:25.218Z,96748.36
2018-03-25T07:24:53.477Z,96745.73
2018-03-25T07:27:21.785Z,96749.39
2018-03-25T07:29:50.815Z,96746.83
2018-03-25T07:32:19.090Z,96751.22
2018-03-25T07:34:47.346Z,96753.64
2018-03-25T07:37:15.667Z,96750.39
2018-03-25T07:39:44.701Z,96752.47
2018-03-25T07:42:12.989Z,96758.56
2018-03-25T07:44:41.242Z,96760.05
2018-03-25T07:47:10.351Z,96769.66
2018-03-25T07:49:39.367Z,96768.95
2018-03-25T07:52:08.408Z,96768.99
2018-03-25T07:54:36.675Z,96768.77
2018-03-25T07:57:04.971Z,96776.28
2018-03-25T07:59:33.236Z,96776.87
2018-03-25T08:02:02.298Z,96780.47
2018-03-25T08:04:30.689Z,96783.44
2018-03-25T08:06:59.056Z,96788.52
2018-03-25T08:09:27.537Z,96792.05
2018-03-25T08:11:55.999Z,96789.91
2018-03-25T08:14:24.691Z,96786.91
2018-03-25T08:16:52.968Z,96789.98
2018-03-25T08:19:22.245Z,96789.81
2018-03-25T08:21:50.625Z,96791.78
2018-03-25T08:24:18.897Z,96797.38
2018-03-25T08:26:47.940Z,96798.33
2018-03-25T08:29:16.231Z,96795.14
2018-03-25T08:31:44.523Z,96806.27
2018-03-25T08:34:12.826Z,96801.45
2018-03-25T08:36:41.161Z,96804.00
2018-03-25T08:39:10.220Z,96804.55
2018-03-25T08:41:38.496Z,96804.82
2018-03-25T08:44:06.764Z,96805.80
2018-03-25T08:46:35.040Z,96801.34
2018-03-25T08:49:04.067Z,96828.98
2018-03-25T08:51:33.117Z,96807.09
2018-03-25T08:54:01.509Z,96807.63
2018-03-25T08:56:31.600Z,96816.06
2018-03-25T08:59:00.707Z,96810.92
2018-03-25T09:01:29.019Z,96813.09
2018-03-25T09:03:57.598Z,96806.86
2018-03-25T09:06:26.173Z,96805.22
2018-03-25T09:08:55.570Z,96802.41
2018-03-25T09:11:25.127Z,96805.27
2018-03-25T09:13:54.687Z,96806.50
2018-03-25T09:16:22.948Z,96812.43
2018-03-25T09:18:51.223Z,96810.11
2018-03-25T09:21:19.536Z,96811.06
2018-03-25T09:23:47.931Z,96813.91
2018-03-25T09:26:16.265Z,96811.90
2018-03-25T09:28:44.556Z,96818.52
2018-03-25T09:31:13.585Z,96823.41
2018-03-25T09:33:41.868Z,96817.94
2018-03-25T09:36:11.640Z,96821.66
2018-03-25T09:38:39.911Z,96820.00
2018-03-25T09:41:08.174Z,96825.13
2018-03-25T09:43:37.399Z,96821.77
2018-03-25T09:46:05.644Z,96825.53
2018-03-25T09:48:34.700Z,96830.03
2018-03-25T09:51:02.961Z,96832.03
2018-03-25T09:53:32.116Z,96834.56
2018-03-25T09:56:00.414Z,96833.62
2018-03-25T09:58:28.801Z,96832.22
2018-03-25T10:01:02.611Z,96827.05
2018-03-25T10:03:32.713Z,96833.74
2018-03-25T10:06:00.990Z,96832.81
2018-03-25T10:08:30.131Z,96833.55
2018-03-25T10:10:59.231Z,96840.77
2018-03-25T10:13:27.713Z,96837.56
2018-03-25T10:15:56.199Z,96840.66
2018-03-25T10:18:25.319Z,96850.16
2018-03-25T10:20:54.009Z,96851.71
2018-03-25T10:23:22.325Z,96846.64
2018-03-25T10:25:52.500Z,96846.11
2018-03-25T10:28:20.778Z,96845.53
2018-03-25T10:30:49.056Z,96845.48
2018-03-25T10:33:17.317Z,96839.59
2018-03-25T10:35:45.594Z,96841.59
2018-03-25T10:38:13.851Z,96846.36
2018-03-25T10:40:42.129Z,96844.91
2018-03-25T10:43:10.397Z,96846.34
2018-03-25T10:45:38.670Z,96839.00
2018-03-25T10:48:06.949Z,96833.59
2018-03-25T10:50:35.253Z,96835.45
2018-03-25T10:53:03.502Z,96837.16
2018-03-25T10:55:32.543Z,96834.02
2018-03-25T10:58:00.823Z,96838.84
2018-03-25T11:00:29.936Z,96824.36
2018-03-25T11:02:58.263Z,96827.92
2018-03-25T11:05:27.522Z,96834.62
2018-03-25T11:07:55.946Z,96836.63
2018-03-25T11:10:24.461Z,96837.27
2018-03-25T11:12:54.621Z,96841.28
2018-03-25T11:15:23.690Z,96843.95
2018-03-25T11:17:52.748Z,96836.02
2018-03-25T11:20:21.793Z,96834.81
2018-03-25T11:22:50.065Z,96836.29
2018-03-25T11:25:18.340Z,96833.36
2018-03-25T11:27:47.372Z,96840.94
2018-03-25T11:30:15.648Z,96832.84
2018-03-25T11:32:43.956Z,96842.34
2018-03-25T11:35:12.251Z,96834.30
2018-03-25T11:37:40.538Z,96838.46
2018-03-25T11:40:08.905Z,96836.50
2018-03-25T11:42:37.913Z,96837.18
2018-03-25T11:45:06.192Z,96843.94
2018-03-25T11:47:35.289Z,96842.73
2018-03-25T11:50:03.558Z,96842.38
2018-03-25T11:52:31.881Z,96844.05
2018-03-25T11:55:01.277Z,96841.50
2018-03-25T11:57:29.810Z,96839.51
2018-03-25T11:59:58.291Z,96841.03
2018-03-25T12:02:28.519Z,96839.59
2018-03-25T12:04:57.055Z,96838.67
2018-03-25T12:07:25.704Z,96844.38
2018-03-25T12:09:54.483Z,96842.02
2018-03-25T12:12:23.574Z,96851.91
2018-03-25T12:14:51.920Z,96844.74
2018-03-25T12:17:20.952Z,96840.88
2018-03-25T12:19:49.209Z,96847.21
2018-03-25T12:22:17.496Z,96846.09
2018-03-25T12:24:45.780Z,96845.59
2018-03-25T12:27:14.952Z,96846.43
2018-03-25T12:29:43.221Z,96840.55
2018-03-25T12:32:11.507Z,96850.70
2018-03-25T12:34:41.107Z,96845.76
2018-03-25T12:37:09.380Z,96846.46
2018-03-25T12:39:37.684Z,96847.09
2018-03-25T12:42:06.804Z,96842.28
2018-03-25T12:44:35.081Z,96847.77
2018-03-25T12:47:03.367Z,96839.16
2018-03-25T12:49:31.633Z,96839.13
2018-03-25T12:52:00.764Z,96833.22
2018-03-25T12:54:29.143Z,96830.40
2018-03-25T12:56:58.413Z,96831.99
2018-03-25T12:59:26.770Z,96827.61
2018-03-25T13:01:55.268Z,96832.86
2018-03-25T13:04:23.579Z,96834.79
2018-03-25T13:06:53.067Z,96840.98
2018-03-25T13:09:21.500Z,96833.65
2018-03-25T13:11:49.804Z,96837.15
2018-03-25T13:14:18.120Z,96831.40
2018-03-25T13:16:47.188Z,96835.10
2018-03-25T13:19:15.500Z,96834.84
2018-03-25T13:21:43.820Z,96837.11
2018-03-25T13:24:12.180Z,96834.04
2018-03-25T13:26:40.533Z,96826.99
2018-03-25T13:29:08.851Z,96825.01
2018-03-25T13:31:37.145Z,96831.98
2018-03-25T13:34:05.508Z,96832.69
2018-03-25T13:36:33.792Z,96829.39
2018-03-25T13:39:02.880Z,96823.72
2018-03-25T13:41:31.219Z,96834.65
2018-03-25T13:43:59.638Z,96830.37
2018-03-25T13:46:28.974Z,96827.12
2018-03-25T13:48:57.360Z,96825.20
2018-03-25T13:51:25.806Z,96826.14
2018-03-25T13:53:55.506Z,96824.86
2018-03-25T13:56:23.814Z,96826.86
2018-03-25T13:58:53.535Z,96819.28
2018-03-25T14:01:21.881Z,96826.23
2018-03-25T14:03:50.948Z,96818.30
2018-03-25T14:06:19.260Z,96822.70
2018-03-25T14:08:48.324Z,96825.64
2018-03-25T14:11:16.628Z,96825.66
2018-03-25T14:13:44.932Z,96827.88
2018-03-25T14:16:13.999Z,96820.39
2018-03-25T14:18:42.307Z,96819.66
2018-03-25T14:21:10.580Z,96818.72
2018-03-25T14:23:38.907Z,96818.09
2018-03-25T14:26:09.829Z,96815.31
2018-03-25T14:28:38.147Z,96813.44
2018-03-25T14:31:06.441Z,96807.37
2018-03-25T14:33:35.583Z,96812.53
2018-03-25T14:36:03.887Z,96816.17
2018-03-25T14:38:32.165Z,96810.02
2018-03-25T14:41:00.514Z,96818.83
2018-03-25T14:43:28.946Z,96813.52
2018-03-25T14:45:57.470Z,96817.63
2018-03-25T14:48:25.974Z,96811.02
2018-03-25T14:50:54.396Z,96810.40
2018-03-25T14:53:22.681Z,96813.52
2018-03-25T14:55:51.784Z,96818.98
2018-03-25T14:58:20.112Z,96809.04
2018-03-25T15:00:48.521Z,96810.77
2018-03-25T15:03:16.792Z,96809.92
2018-03-25T15:05:45.104Z,96815.38
2018-03-25T15:08:13.392Z,96820.91
2018-03-25T15:10:41.713Z,96821.14
2018-03-25T15:13:09.993Z,96822.00
2018-03-25T15:15:38.315Z,96812.46
2018-03-25T15:18:07.354Z,96818.06
2018-03-25T15:20:35.661Z,96818.48
2018-03-25T15:23:03.956Z,96828.16
2018-03-25T15:25:32.341Z,96836.19
2018-03-25T15:28:00.724Z,96832.34
2018-03-25T15:30:29.357Z,96834.55
2018-03-25T15:32:58.625Z,96830.58
2018-03-25T15:35:28.116Z,96839.73
2018-03-25T15:37:56.693Z,96840.34
2018-03-25T15:40:25.224Z,96837.45
2018-03-25T15:42:53.644Z,96844.70
2018-03-25T15:45:22.907Z,96844.06
2018-03-25T15:47:51.164Z,96861.09
2018-03-25T15:50:19.515Z,96846.45
2018-03-25T15:52:48.646Z,96848.36
2018-03-25T15:55:16.957Z,96860.75
2018-03-25T15:57:45.253Z,96857.64
2018-03-25T16:00:13.571Z,96856.23
2018-03-25T16:02:42.684Z,96856.05
2018-03-25T16:05:11.755Z,96849.36
2018-03-25T16:07:40.249Z,96859.24
2018-03-25T16:10:08.552Z,96857.47
2018-03-25T16:12:36.850Z,96866.23
2018-03-25T16:15:05.147Z,96864.36
2018-03-25T16:17:33.466Z,96861.08
2018-03-25T16:20:01.753Z,96866.56
2018-03-25T16:22:30.125Z,96870.59
2018-03-25T16:24:59.257Z,96866.67
2018-03-25T16:27:27.761Z,96863.61
2018-03-25T16:29:56.229Z,96868.67
2018-03-25T16:32:24.620Z,96881.03
2018-03-25T16:34:52.954Z,96870.09
2018-03-25T16:37:21.272Z,96875.22
2018-03-25T16:39:49.589Z,96875.77
2018-03-25T16:42:18.706Z,96876.79
2018-03-25T16:44:47.762Z,96877.20
2018-03-25T16:47:16.110Z,96878.31
2018-03-25T16:49:44.446Z,96877.30
2018-03-25T16:52:13.526Z,96880.64
2018-03-25T16:54:41.783Z,96882.64
2018-03-25T16:57:10.874Z,96881.27
2018-03-25T16:59:39.153Z,96887.29
2018-03-25T17:02:07.456Z,96892.84
2018-03-25T17:04:35.733Z,96894.44
2018-03-25T17:07:04.026Z,96894.20
2018-03-25T17:09:32.298Z,96895.80
2018-03-25T17:12:00.623Z,96899.97
2018-03-25T17:14:29.666Z,96907.97
2018-03-25T17:16:57.948Z,96914.74
2018-03-25T17:19:26.315Z,96906.23
2018-03-25T17:21:55.464Z,96917.54
2018-03-25T17:24:23.861Z,96917.78
2018-03-25T17:26:52.161Z,96925.22
2018-03-25T17:29:20.449Z,96930.02
2018-03-25T17:31:48.748Z,96930.08
2018-03-25T17:34:17.052Z,96937.45
2018-03-25T17:36:46.099Z,96954.42
2018-03-25T17:39:15.177Z,96947.07
2018-03-25T17:41:43.440Z,96936.94
2018-03-25T17:44:11.739Z,96945.47
2018-03-25T17:46:40.785Z,96948.95
2018-03-25T17:49:09.081Z,96956.80
2018-03-25T17:51:38.116Z,96960.79
2018-03-25T17:54:06.380Z,96956.23
2018-03-25T17:56:34.674Z,96958.05
2018-03-25T17:59:02.949Z,96963.63
2018-03-25T18:01:32.716Z,96965.67
2018-03-25T18:04:01.027Z,96966.33
2018-03-25T18:06:30.117Z,96967.72
2018-03-25T18:08:58.485Z,96978.67
2018-03-25T18:11:26.941Z,96969.03
2018-03-25T18:13:55.384Z,96970.14
2018-03-25T18:16:23.944Z,96974.86
2018-03-25T18:18:52.998Z,96972.03
2018-03-25T18:21:22.060Z,96976.00
2018-03-25T18:23:51.132Z,96984.92
2018-03-25T18:26:19.401Z,96987.01
2018-03-25T18:28:47.764Z,96988.27
2018-03-25T18:31:16.034Z,96999.41
2018-03-25T18:33:45.080Z,97002.89
2018-03-25T18:36:13.326Z,96999.48
2018-03-25T18:38:42.390Z,96998.69
2018-03-25T18:41:10.667Z,97006.50
2018-03-25T18:43:38.940Z,97008.05
2018-03-25T18:46:07.204Z,97015.91
2018-03-25T18:48:35.496Z,97015.19
2018-03-25T18:51:05.423Z,97016.30
2018-03-25T18:53:34.456Z,97016.66
2018-03-25T18:56:02.725Z,97015.78
2018-03-25T18:58:31.760Z,97011.67
2018-03-25T19:01:00.123Z,97017.30
2018-03-25T19:03:28.532Z,97022.05
2018-03-25T19:05:57.095Z,97025.20
2018-03-25T19:08:26.200Z,97024.66
2018-03-25T19:10:54.573Z,97029.77
2018-03-25T19:13:23.024Z,97033.17
2018-03-25T19:15:51.289Z,97038.77
2018-03-25T19:18:20.332Z,97030.52
2018-03-25T19:20:48.612Z,97035.81
2018-03-25T19:23:16.899Z,97036.48
2018-03-25T19:25:45.156Z,97031.02
2018-03-25T19:28:14.205Z,97043.72
2018-03-25T19:30:42.473Z,97043.28
2018-03-25T19:33:10.758Z,97041.85
2018-03-25T19:35:39.016Z,97045.88
2018-03-25T19:38:07.341Z,97049.48
2018-03-25T19:40:35.649Z,97046.25
2018-03-25T19:43:04.643Z,97044.86
2018-03-25T19:45:32.924Z,97049.63
2018-03-25T19:48:01.189Z,97049.88
2018-03-25T19:50:29.589Z,97057.41
2018-03-25T19:52:57.929Z,97051.31
2018-03-25T19:55:26.387Z,97059.83
2018-03-25T19:57:54.887Z,97058.87
2018-03-25T20:00:24.004Z,97062.28
2018-03-25T20:02:52.342Z,97062.65
2018-03-25T20:05:20.620Z,97070.75
2018-03-25T20:07:49.647Z,97069.55
2018-03-25T20:10:17.982Z,97074.83
2018-03-25T20:12:46.310Z,97085.84
2018-03-25T20:15:14.605Z,97079.45
2018-03-25T20:17:43.684Z,97074.61
2018-03-25T20:20:11.988Z,97086.95
2018-03-25T20:22:40.284Z,97088.27
2018-03-25T20:25:08.569Z,97090.42
2018-03-25T20:27:36.844Z,97099.05
2018-03-25T20:30:05.131Z,97093.88
2018-03-25T20:32:33.389Z,97098.68
2018-03-25T20:35:01.707Z,97093.38
2018-03-25T20:37:30.046Z,97093.38
2018-03-25T20:39:58.423Z,97090.45
2018-03-25T20:42:26.747Z,97102.01
2018-03-25T20:44:55.216Z,97103.00
2018-03-25T20:47:23.517Z,97096.84
2018-03-25T20:49:51.818Z,97101.75
2018-03-25T20:52:20.163Z,97101.31
2018-03-25T20:54:48.430Z,97103.45
2018-03-25T20:57:16.759Z,97103.53
2018-03-25T20:59:45.170Z,97106.94
2018-03-25T21:02:14.331Z,97113.52
2018-03-25T21:04:42.627Z,97109.95
2018-03-25T21:07:10.893Z,97105.37
2018-03-25T21:09:39.178Z,97111.97
2018-03-25T21:12:07.463Z,97110.43
2018-03-25T21:14:35.741Z,97107.64
2018-03-25T21:17:04.772Z,97107.56
2018-03-25T21:19:33.033Z,97117.73
2018-03-25T21:22:02.088Z,97119.09
2018-03-25T21:24:30.458Z,97120.19
2018-03-25T21:26:58.792Z,97117.48
2018-03-25T21:29:27.932Z,97123.02
2018-03-25T21:31:56.446Z,97125.98
2018-03-25T21:34:26.133Z,97126.17
2018-03-25T21:36:55.462Z,97128.59
2018-03-25T21:39:23.825Z,97127.52
2018-03-25T21:41:52.182Z,97122.23
2018-03-25T21:44:20.433Z,97123.35
2018-03-25T21:46:48.716Z,97122.86
2018-03-25T21:49:17.029Z,97124.48
2018-03-25T21:51:45.435Z,97129.85
2018-03-25T21:54:13.792Z,97123.97
2018-03-25T21:56:42.020Z,97130.56
2018-03-25T21:59:10.280Z,97134.16
2018-03-25T22:01:38.560Z,97132.51
2018-03-25T22:04:07.586Z,97133.58
2018-03-25T22:06:35.885Z,97131.16
2018-03-25T22:09:04.156Z,97131.66
2018-03-25T22:11:32.417Z,97131.38
2018-03-25T22:14:00.754Z,97137.97
2018-03-25T22:16:29.089Z,97134.50
2018-03-25T22:19:00.111Z,97132.08
2018-03-25T22:21:28.455Z,97137.70
2018-03-25T22:23:56.939Z,97139.91
2018-03-25T22:26:25.408Z,97145.34
2018-03-25T22:28:53.705Z,97137.89
2018-03-25T22:31:22.024Z,97140.09
2018-03-25T22:33:51.070Z,97141.16
2018-03-25T22:36:19.330Z,97142.39
2018-03-25T22:38:47.601Z,97145.95
2018-03-25T22:41:15.896Z,97147.27
2018-03-25T22:43:44.945Z,97145.29
2018-03-25T22:46:13.248Z,97143.62
2018-03-25T22:48:41.573Z,97145.22
2018-03-25T22:51:10.601Z,97147.77
2018-03-25T22:53:38.885Z,97151.47
2018-03-25T22:56:07.913Z,97156.14
2018-03-25T22:58:36.197Z,97157.14
2018-03-25T23:01:04.450Z,97148.57
2018-03-25T23:03:33.500Z,97154.83
2018-03-25T23:06:01.770Z,97154.31
2018-03-25T23:08:30.803Z,97165.77
2018-03-25T23:10:59.087Z,97154.66
2018-03-25T23:13:28.449Z,97155.66
2018-03-25T23:15:57.653Z,97151.86
2018-03-25T23:18:26.042Z,97150.13
2018-03-25T23:20:55.430Z,97154.11
2018-03-25T23:23:24.662Z,97152.81
2018-03-25T23:25:52.921Z,97158.33
2018-03-25T23:28:21.280Z,97157.65
2018-03-25T23:30:50.310Z,97158.95
2018-03-25T23:33:19.404Z,97156.91
2018-03-25T23:35:47.672Z,97156.23
2018-03-25T23:38:15.996Z,97156.02
2018-03-25T23:40:45.076Z,97149.23
2018-03-25T23:43:13.402Z,97152.14
2018-03-25T23:45:41.678Z,97156.74
2018-03-25T23:48:09.931Z,97159.69
2018-03-25T23:50:38.214Z,97158.84
2018-03-25T23:53:06.456Z,97163.88
2018-03-25T23:55:34.726Z,97162.09
2018-03-25T23:58:03.797Z,97167.09
